< < Back
Terminal Aerodrome Forecast


Current Version              Previous Versions:   1  2  3  4  5  6  7  8  9  

Terminal Aerodrome Forecast

614
FTUS42 KGSP 210400 AAA
TAFAVL
TAF AMD
KAVL 210430Z 2105/2124 00000KT 1SM BR SCT002
      TEMPO 2105/2108 3SM BR
     FM210800 34003KT 3SM BR SCT250
     FM211000 34003KT 1/2SM FG SCT002
     FM211300 34006KT P6SM SCT250
     FM211800 35011G18KT P6SM SCT045=



Latest METAR

542
SAUS70 KWBC 211500 RRB
MTRAVL
METAR KAVL 211454Z 34005KT 10SM CLR 15/09 A3000 RMK AO2 SLP147 T01500094
50000


USA.gov is the U.S. government's official web portal to all federal, state and local government web resources and services.